SBBG

Comandante Gustavo Kraemer Airport

Bagé, Brazil
TAF SBBG 180300Z 1806/1906 25005KT 2000 BR BKN002 TX29/1816Z TN17/190 6Z BECMG 1810/1812 8000 BKN006 BECMG 1812/1814 16010KT 9999 NSW SCT025 BECMG 1822/1824 16015KT BKN010 RMK PDW
Issued Valid From Valid To
Oct-18 @ 03:00 UTC
(6 hours ago)
Oct-18 @ 06:00 UTC
(3 hours ago)
Oct-19 @ 06:00 UTC
(in 21 hours)
Oct-18 @ 06:00 to Oct-18 @ 10:00
TAF SBBG 180300Z 1806/1906 25005KT 2000 BR BKN002 TX29/1816Z TN17/190 6Z
Wind Visibility Clouds Conditions
250° at 5 knots 1,996 meters
  • Broken at 200' AGL
  • Mist
Becoming Oct-18 @ 10:00 to Oct-18 @ 12:00
BECMG 1810/1812 8000 BKN006
Wind Visibility Clouds Conditions
250° at 5 knots 7,998 meters
  • Broken at 600' AGL
  • Mist
Becoming Oct-18 @ 12:00 to Oct-18 @ 22:00
BECMG 1812/1814 16010KT 9999 NSW SCT025
Wind Visibility Clouds Conditions
160° at 10 knots 10,000+ meters
  • Scattered at 2,500' AGL
Becoming Oct-18 @ 22:00 to Oct-19 @ 06:00
BECMG 1822/1824 16015KT BKN010 RMK PDW
Wind Visibility Clouds Conditions
160° at 15 knots 10,000+ meters
  • Broken at 1,000' AGL
TAF SBBG 180300Z 1806/1906 25005KT 2000 BR BKN002 TX29/1816Z TN17/190 6Z BECMG 1810/1812 8000 BKN006 BECMG 1812/1814 16010KT 9999 NSW SCT025 BECMG 1822/1824 16015KT BKN010 RMK PDW
Issued Oct-18 @ 03:00 UTC
(6 hours ago)
Valid From Oct-18 @ 06:00 UTC
(3 hours ago)
Valid To Oct-19 @ 06:00 UTC
(in 21 hours)
Oct-18 @ 06:00 - Oct-18 @ 10:00
Wind Visibility
250° at 5 knots 1,996 meters
Clouds
  • Broken at 200' AGL
Conditions
  • Mist
Becoming Oct-18 @ 10:00 - Oct-18 @ 12:00
Wind Visibility
250° at 5 knots 7,998 meters
Clouds
  • Broken at 600' AGL
Conditions
  • Mist
Becoming Oct-18 @ 12:00 - Oct-18 @ 22:00
Wind Visibility
160° at 10 knots 10,000+ meters
Clouds
  • Scattered at 2,500' AGL
Conditions
Becoming Oct-18 @ 22:00 - Oct-19 @ 06:00
Wind Visibility
160° at 15 knots 10,000+ meters
Clouds
  • Broken at 1,000' AGL
Conditions